createdAt,value
2023-06-30T00:02:35.909Z,13.90
2023-06-30T00:06:39.794Z,13.90
2023-06-30T00:10:43.778Z,13.90
2023-06-30T00:14:48.952Z,13.80
2023-06-30T00:18:57.240Z,13.80
2023-06-30T00:23:01.187Z,13.80
2023-06-30T00:27:05.402Z,13.70
2023-06-30T00:31:10.788Z,13.70
2023-06-30T00:35:14.699Z,13.70
2023-06-30T00:39:19.826Z,13.60
2023-06-30T00:43:23.690Z,13.60
2023-06-30T00:47:29.246Z,13.50
2023-06-30T00:51:34.083Z,13.50
2023-06-30T00:55:38.284Z,13.50
2023-06-30T00:59:42.495Z,13.40
2023-06-30T01:03:53.422Z,13.40
2023-06-30T01:08:19.654Z,13.30
2023-06-30T01:12:25.008Z,13.40
2023-06-30T01:16:31.280Z,13.30
2023-06-30T01:20:41.527Z,13.30
2023-06-30T01:24:50.425Z,13.20
2023-06-30T01:28:54.572Z,13.20
2023-06-30T01:32:59.995Z,13.10
2023-06-30T01:37:05.817Z,13.10
2023-06-30T01:41:10.521Z,13.00
2023-06-30T01:45:15.312Z,13.00
2023-06-30T01:49:20.246Z,13.00
2023-06-30T01:53:25.884Z,13.00
2023-06-30T01:57:29.529Z,13.00
2023-06-30T02:01:33.492Z,12.90
2023-06-30T02:05:37.526Z,12.90
2023-06-30T02:09:48.528Z,12.90
2023-06-30T02:13:53.298Z,12.80
2023-06-30T02:17:57.967Z,12.80
2023-06-30T02:22:01.863Z,12.80
2023-06-30T02:26:07.112Z,12.70
2023-06-30T02:30:11.762Z,12.70
2023-06-30T02:34:15.990Z,12.70
2023-06-30T02:38:20.005Z,12.60
2023-06-30T02:42:25.332Z,12.60
2023-06-30T02:46:29.343Z,12.60
2023-06-30T02:50:34.405Z,12.60
2023-06-30T02:54:38.486Z,12.50
2023-06-30T02:58:43.843Z,12.50
2023-06-30T03:02:47.979Z,12.50
2023-06-30T03:06:53.043Z,12.50
2023-06-30T03:10:56.876Z,12.50
2023-06-30T03:15:02.399Z,12.50
2023-06-30T03:19:06.092Z,12.40
2023-06-30T03:23:09.984Z,12.50
2023-06-30T03:27:13.837Z,12.40
2023-06-30T03:31:20.547Z,12.50
2023-06-30T03:35:24.896Z,12.50
2023-06-30T03:39:28.724Z,12.50
2023-06-30T03:43:34.283Z,12.50
2023-06-30T03:47:39.774Z,12.60
2023-06-30T03:51:43.646Z,12.60
2023-06-30T03:55:47.507Z,12.70
2023-06-30T03:59:51.412Z,12.80
2023-06-30T04:03:56.566Z,12.90
2023-06-30T04:08:02.583Z,13.00
2023-06-30T04:12:07.273Z,13.00
2023-06-30T04:16:11.357Z,13.10
2023-06-30T04:20:17.234Z,13.20
2023-06-30T04:24:21.607Z,13.30
2023-06-30T04:28:25.216Z,13.30
2023-06-30T04:32:29.084Z,13.40
2023-06-30T04:36:34.185Z,13.50
2023-06-30T04:40:38.110Z,13.70
2023-06-30T04:44:41.823Z,13.80
2023-06-30T04:48:46.662Z,13.90
2023-06-30T04:52:51.735Z,14.00
2023-06-30T04:56:57.949Z,14.10
2023-06-30T05:01:02.075Z,14.20
2023-06-30T05:05:05.920Z,14.30
2023-06-30T05:09:11.248Z,14.40
2023-06-30T05:13:14.856Z,14.60
2023-06-30T05:17:18.694Z,14.80
2023-06-30T05:21:22.654Z,15.00
2023-06-30T05:25:27.812Z,15.10
2023-06-30T05:29:33.424Z,15.20
2023-06-30T05:33:37.414Z,15.30
2023-06-30T05:37:41.156Z,15.50
2023-06-30T05:41:47.259Z,15.70
2023-06-30T05:45:51.380Z,15.90
2023-06-30T05:49:55.324Z,16.10
2023-06-30T05:54:02.975Z,16.40
2023-06-30T05:58:08.092Z,16.60
2023-06-30T06:02:12.323Z,16.80
2023-06-30T06:06:16.356Z,17.00
2023-06-30T06:10:20.049Z,17.20
2023-06-30T06:14:27.440Z,17.30
2023-06-30T06:18:31.623Z,17.50
2023-06-30T06:22:35.610Z,17.70
2023-06-30T06:26:39.293Z,18.00
2023-06-30T06:30:44.547Z,18.30
2023-06-30T06:34:48.586Z,18.60
2023-06-30T06:38:52.238Z,18.70
2023-06-30T06:42:56.881Z,18.90
2023-06-30T06:47:39.012Z,19.10
2023-06-30T06:51:45.184Z,19.50
2023-06-30T06:55:50.255Z,19.50
2023-06-30T06:59:54.014Z,19.70
2023-06-30T07:03:57.771Z,19.80
2023-06-30T07:08:03.100Z,20.00
2023-06-30T07:12:07.776Z,20.30
2023-06-30T07:16:12.556Z,20.50
2023-06-30T07:20:16.256Z,20.70
2023-06-30T07:24:21.409Z,20.70
2023-06-30T07:28:25.118Z,20.80
2023-06-30T07:32:28.861Z,21.00
2023-06-30T07:36:32.850Z,21.10
2023-06-30T07:40:51.163Z,21.20
2023-06-30T07:45:00.193Z,21.40
2023-06-30T07:49:04.248Z,21.40
2023-06-30T07:53:09.762Z,21.60
2023-06-30T07:57:15.228Z,21.70
2023-06-30T08:01:18.923Z,21.80
2023-06-30T08:05:22.666Z,22.10
2023-06-30T08:09:26.784Z,22.20
2023-06-30T08:13:32.072Z,22.40
2023-06-30T08:17:50.955Z,22.50
2023-06-30T08:21:59.801Z,22.70
2023-06-30T08:26:03.684Z,22.90
2023-06-30T08:30:10.210Z,23.10
2023-06-30T08:34:14.032Z,23.30
2023-06-30T08:38:18.037Z,23.30
2023-06-30T08:42:27.187Z,23.50
2023-06-30T08:46:32.713Z,24.20
2023-06-30T08:50:36.934Z,24.80
2023-06-30T08:54:43.544Z,25.20
2023-06-30T08:58:47.427Z,26.10
2023-06-30T09:02:54.569Z,28.40
2023-06-30T09:07:01.331Z,29.90
2023-06-30T09:11:09.443Z,31.50
2023-06-30T09:15:19.301Z,31.50
2023-06-30T09:19:24.919Z,31.90
2023-06-30T09:23:29.960Z,32.90
2023-06-30T09:27:37.163Z,33.40
2023-06-30T09:31:42.291Z,33.80
2023-06-30T09:35:48.998Z,34.00
2023-06-30T09:39:54.138Z,33.60
2023-06-30T09:44:12.697Z,34.80
2023-06-30T09:48:16.614Z,34.80
2023-06-30T09:52:26.938Z,33.90
2023-06-30T09:56:30.846Z,34.50
2023-06-30T10:00:36.053Z,34.10
2023-06-30T10:04:41.068Z,33.70
2023-06-30T10:08:46.686Z,33.70
2023-06-30T10:12:51.393Z,33.70
2023-06-30T10:16:56.649Z,34.60
2023-06-30T10:21:00.583Z,34.60
2023-06-30T10:25:09.063Z,33.30
2023-06-30T10:29:13.143Z,34.10
2023-06-30T10:33:17.166Z,34.60
2023-06-30T10:37:21.890Z,34.90
2023-06-30T10:41:27.146Z,34.70
2023-06-30T10:45:32.103Z,35.10
2023-06-30T10:49:37.333Z,35.40
2023-06-30T10:53:45.162Z,35.80
2023-06-30T10:57:54.199Z,35.20
2023-06-30T11:02:34.298Z,36.00
2023-06-30T11:06:38.692Z,35.20
2023-06-30T11:10:49.391Z,34.70
2023-06-30T11:14:57.223Z,34.80
2023-06-30T11:19:05.823Z,35.90
2023-06-30T11:23:20.983Z,35.60
2023-06-30T11:27:33.897Z,36.10
2023-06-30T11:31:42.948Z,36.60
2023-06-30T11:55:57.995Z,38.80
2023-06-30T12:06:32.818Z,38.40
2023-06-30T13:34:49.155Z,40.50
2023-06-30T13:38:56.298Z,42.40
2023-06-30T13:47:18.390Z,41.10
2023-06-30T13:51:23.851Z,40.30
2023-06-30T13:55:29.584Z,40.70
2023-06-30T13:59:35.780Z,40.30
2023-06-30T14:03:41.512Z,38.20
2023-06-30T14:07:48.258Z,36.80
2023-06-30T14:11:52.069Z,38.80
2023-06-30T14:16:33.294Z,38.90
2023-06-30T14:21:06.801Z,40.40
2023-06-30T14:25:41.269Z,39.00
2023-06-30T14:29:52.739Z,41.10
2023-06-30T14:33:57.024Z,41.00
2023-06-30T14:38:00.961Z,41.80
2023-06-30T14:42:22.960Z,41.30
2023-06-30T14:46:43.224Z,40.20
2023-06-30T14:50:50.884Z,39.80
2023-06-30T14:55:05.136Z,38.70
2023-06-30T14:59:51.600Z,38.60
2023-06-30T15:03:56.967Z,37.20
2023-06-30T15:08:12.835Z,35.60
2023-06-30T15:12:29.339Z,35.70
2023-06-30T15:16:38.918Z,36.40
2023-06-30T15:21:09.056Z,37.60
2023-06-30T15:25:27.496Z,38.60
2023-06-30T15:29:48.046Z,38.00
2023-06-30T15:33:52.907Z,38.00
2023-06-30T15:37:58.292Z,36.60
2023-06-30T15:42:02.361Z,36.60
2023-06-30T15:46:06.215Z,36.20
2023-06-30T15:50:10.705Z,36.50
2023-06-30T15:54:16.149Z,36.10
2023-06-30T15:58:19.977Z,35.40
2023-06-30T16:02:32.445Z,33.90
2023-06-30T16:06:56.034Z,34.50
2023-06-30T16:11:47.670Z,34.70
2023-06-30T16:16:14.334Z,34.00
2023-06-30T16:20:18.215Z,32.40
2023-06-30T16:24:39.435Z,31.10
2023-06-30T16:28:54.552Z,30.20
2023-06-30T16:33:21.100Z,29.80
2023-06-30T16:37:34.570Z,30.00
2023-06-30T16:41:38.402Z,30.00
2023-06-30T16:45:52.621Z,30.10
2023-06-30T16:50:01.674Z,30.20
2023-06-30T16:54:09.783Z,30.00
2023-06-30T16:58:15.344Z,29.40
2023-06-30T17:02:52.289Z,28.80
2023-06-30T17:07:42.574Z,28.50
2023-06-30T17:11:53.091Z,28.30
2023-06-30T17:16:03.616Z,27.90
2023-06-30T17:20:12.631Z,27.30
2023-06-30T17:24:16.767Z,27.10
2023-06-30T17:28:22.752Z,26.80
2023-06-30T17:32:28.996Z,26.50
2023-06-30T17:37:01.049Z,26.20
2023-06-30T17:41:05.720Z,25.80
2023-06-30T17:45:10.295Z,25.60
2023-06-30T17:49:26.195Z,25.40
2023-06-30T17:53:33.838Z,25.10
2023-06-30T17:57:38.948Z,24.80
2023-06-30T18:02:00.261Z,24.50
2023-06-30T18:06:48.008Z,24.30
2023-06-30T18:11:13.657Z,24.10
2023-06-30T18:15:18.960Z,24.00
2023-06-30T18:20:00.245Z,23.90
2023-06-30T18:24:06.458Z,23.70
2023-06-30T18:28:28.171Z,23.60
2023-06-30T18:33:05.644Z,23.50
2023-06-30T18:37:11.046Z,23.50
2023-06-30T18:41:32.107Z,23.40
2023-06-30T18:45:45.478Z,23.20
2023-06-30T18:50:14.360Z,23.10
2023-06-30T18:54:26.218Z,22.90
2023-06-30T18:58:54.868Z,22.70
2023-06-30T19:03:35.185Z,22.60
2023-06-30T19:07:40.077Z,22.40
2023-06-30T19:11:47.131Z,22.20
2023-06-30T19:15:53.495Z,22.10
2023-06-30T19:20:01.649Z,22.00
2023-06-30T19:24:27.480Z,22.00
2023-06-30T19:29:28.041Z,21.90
2023-06-30T19:33:38.143Z,21.80
2023-06-30T19:37:47.314Z,21.90
2023-06-30T19:42:24.771Z,22.00
2023-06-30T19:46:31.002Z,22.00
2023-06-30T19:50:53.323Z,22.10
2023-06-30T19:55:36.378Z,22.10
2023-06-30T19:59:41.325Z,22.00
2023-06-30T20:03:47.988Z,22.00
2023-06-30T20:07:52.780Z,22.00
2023-06-30T20:12:01.022Z,21.90
2023-06-30T20:16:05.225Z,21.80
2023-06-30T20:20:27.828Z,21.70
2023-06-30T20:26:10.823Z,21.70
2023-06-30T20:41:05.680Z,22.30
2023-06-30T20:45:11.649Z,22.20
2023-06-30T20:49:16.315Z,22.00
2023-06-30T20:53:20.601Z,22.00
2023-06-30T20:57:26.884Z,21.80
2023-06-30T21:01:31.813Z,21.70
2023-06-30T21:05:36.141Z,21.50
2023-06-30T21:09:40.645Z,21.30
2023-06-30T21:13:46.568Z,21.20
2023-06-30T21:17:51.284Z,21.00
2023-06-30T21:21:58.011Z,20.90
2023-06-30T21:26:02.727Z,20.90
2023-06-30T21:30:10.941Z,21.00
2023-06-30T21:34:15.167Z,20.90
2023-06-30T21:38:19.897Z,20.80
2023-06-30T21:42:23.589Z,20.70
2023-06-30T21:46:28.941Z,20.50
2023-06-30T21:50:32.699Z,20.50
2023-06-30T21:54:47.299Z,20.20
2023-06-30T21:58:53.250Z,20.10
2023-06-30T22:02:59.017Z,20.00
2023-06-30T22:07:02.775Z,19.80
2023-06-30T22:11:06.592Z,19.70
2023-06-30T22:15:11.132Z,19.60
2023-06-30T22:19:16.585Z,19.50
2023-06-30T22:23:20.370Z,19.40
2023-06-30T22:27:24.074Z,19.30
2023-06-30T22:31:28.097Z,19.20
2023-06-30T22:35:33.309Z,19.20
2023-06-30T22:39:46.368Z,19.10
2023-06-30T22:44:05.398Z,19.00
2023-06-30T22:53:04.122Z,18.90
2023-06-30T22:57:10.262Z,18.80
2023-06-30T23:01:20.756Z,18.90
2023-06-30T23:05:44.359Z,18.90
2023-06-30T23:10:04.650Z,19.00
2023-06-30T23:14:17.083Z,19.10
2023-06-30T23:18:27.847Z,19.10
2023-06-30T23:22:33.128Z,19.10
2023-06-30T23:26:40.932Z,19.20
2023-06-30T23:30:49.082Z,19.10
2023-06-30T23:34:55.156Z,19.10
2023-06-30T23:39:09.754Z,19.10
2023-06-30T23:43:25.502Z,19.00
2023-06-30T23:47:33.112Z,18.90
2023-06-30T23:52:02.968Z,18.90
